sensor_id;sensor_type;location;lat;lon;timestamp;P1;durP1;ratioP1;P2;durP2;ratioP2
10416;SDS011;62605;49.432;8.680;2023-01-10T00:01:22;1.50;;;1.07;;
10416;SDS011;62605;49.432;8.680;2023-01-10T00:03:50;2.10;;;1.50;;
10416;SDS011;62605;49.432;8.680;2023-01-10T00:06:19;1.50;;;1.30;;
10416;SDS011;62605;49.432;8.680;2023-01-10T00:08:46;4.33;;;1.60;;
10416;SDS011;62605;49.432;8.680;2023-01-10T00:11:14;2.67;;;1.30;;
10416;SDS011;62605;49.432;8.680;2023-01-10T00:14:04;1.37;;;1.10;;
10416;SDS011;62605;49.432;8.680;2023-01-10T00:16:31;4.67;;;1.63;;
10416;SDS011;62605;49.432;8.680;2023-01-10T00:18:58;0.87;;;0.87;;
10416;SDS011;62605;49.432;8.680;2023-01-10T00:21:25;3.03;;;1.10;;
10416;SDS011;62605;49.432;8.680;2023-01-10T00:23:52;1.17;;;1.07;;
10416;SDS011;62605;49.432;8.680;2023-01-10T00:26:21;1.77;;;1.10;;
10416;SDS011;62605;49.432;8.680;2023-01-10T00:28:48;1.37;;;1.10;;
10416;SDS011;62605;49.432;8.680;2023-01-10T00:31:16;0.77;;;0.77;;
10416;SDS011;62605;49.432;8.680;2023-01-10T00:33:43;1.10;;;1.10;;
10416;SDS011;62605;49.432;8.680;2023-01-10T00:36:10;1.40;;;1.00;;
10416;SDS011;62605;49.432;8.680;2023-01-10T00:38:37;1.10;;;1.00;;
10416;SDS011;62605;49.432;8.680;2023-01-10T00:41:04;1.40;;;1.10;;
10416;SDS011;62605;49.432;8.680;2023-01-10T00:43:54;2.87;;;1.07;;
10416;SDS011;62605;49.432;8.680;2023-01-10T00:46:22;1.67;;;1.20;;
10416;SDS011;62605;49.432;8.680;2023-01-10T00:48:49;1.40;;;1.30;;
10416;SDS011;62605;49.432;8.680;2023-01-10T00:51:16;2.13;;;1.00;;
10416;SDS011;62605;49.432;8.680;2023-01-10T00:53:43;1.57;;;1.20;;
10416;SDS011;62605;49.432;8.680;2023-01-10T00:56:11;1.13;;;1.10;;
10416;SDS011;62605;49.432;8.680;2023-01-10T00:58:38;1.60;;;0.97;;
10416;SDS011;62605;49.432;8.680;2023-01-10T01:01:06;1.83;;;1.30;;
10416;SDS011;62605;49.432;8.680;2023-01-10T01:03:33;0.87;;;0.73;;
10416;SDS011;62605;49.432;8.680;2023-01-10T01:06:02;2.10;;;1.10;;
10416;SDS011;62605;49.432;8.680;2023-01-10T01:08:30;2.57;;;0.90;;
10416;SDS011;62605;49.432;8.680;2023-01-10T01:10:57;1.27;;;1.07;;
10416;SDS011;62605;49.432;8.680;2023-01-10T01:13:24;0.70;;;0.60;;
10416;SDS011;62605;49.432;8.680;2023-01-10T01:15:51;1.90;;;0.40;;
10416;SDS011;62605;49.432;8.680;2023-01-10T01:18:20;0.50;;;0.50;;
10416;SDS011;62605;49.432;8.680;2023-01-10T01:20:47;0.50;;;0.50;;
10416;SDS011;62605;49.432;8.680;2023-01-10T01:23:17;0.33;;;0.33;;
10416;SDS011;62605;49.432;8.680;2023-01-10T01:25:48;0.50;;;0.50;;
10416;SDS011;62605;49.432;8.680;2023-01-10T01:28:16;0.40;;;0.40;;
10416;SDS011;62605;49.432;8.680;2023-01-10T01:30:43;0.47;;;0.40;;
10416;SDS011;62605;49.432;8.680;2023-01-10T01:33:10;0.20;;;0.20;;
10416;SDS011;62605;49.432;8.680;2023-01-10T01:35:41;2.43;;;0.50;;
10416;SDS011;62605;49.432;8.680;2023-01-10T01:38:09;0.27;;;0.27;;
10416;SDS011;62605;49.432;8.680;2023-01-10T01:40:36;0.73;;;0.43;;
10416;SDS011;62605;49.432;8.680;2023-01-10T01:43:08;0.30;;;0.30;;
10416;SDS011;62605;49.432;8.680;2023-01-10T01:45:47;1.80;;;0.40;;
10416;SDS011;62605;49.432;8.680;2023-01-10T01:48:18;0.33;;;0.33;;
10416;SDS011;62605;49.432;8.680;2023-01-10T01:51:00;1.10;;;0.40;;
10416;SDS011;62605;49.432;8.680;2023-01-10T01:53:32;0.20;;;0.20;;
10416;SDS011;62605;49.432;8.680;2023-01-10T01:56:04;2.13;;;0.60;;
10416;SDS011;62605;49.432;8.680;2023-01-10T01:58:36;1.70;;;0.40;;
10416;SDS011;62605;49.432;8.680;2023-01-10T02:01:07;0.57;;;0.40;;
10416;SDS011;62605;49.432;8.680;2023-01-10T02:03:34;0.40;;;0.27;;
10416;SDS011;62605;49.432;8.680;2023-01-10T02:06:04;0.40;;;0.40;;
10416;SDS011;62605;49.432;8.680;2023-01-10T02:08:32;0.40;;;0.40;;
10416;SDS011;62605;49.432;8.680;2023-01-10T02:11:01;0.30;;;0.30;;
10416;SDS011;62605;49.432;8.680;2023-01-10T02:13:32;0.20;;;0.20;;
10416;SDS011;62605;49.432;8.680;2023-01-10T02:16:03;1.70;;;0.60;;
10416;SDS011;62605;49.432;8.680;2023-01-10T02:18:30;0.37;;;0.37;;
10416;SDS011;62605;49.432;8.680;2023-01-10T02:21:02;0.47;;;0.40;;
10416;SDS011;62605;49.432;8.680;2023-01-10T02:23:59;0.20;;;0.20;;
10416;SDS011;62605;49.432;8.680;2023-01-10T02:27:01;0.27;;;0.27;;
10416;SDS011;62605;49.432;8.680;2023-01-10T02:29:56;0.70;;;0.50;;
10416;SDS011;62605;49.432;8.680;2023-01-10T02:32:50;0.73;;;0.30;;
10416;SDS011;62605;49.432;8.680;2023-01-10T02:35:30;0.30;;;0.30;;
10416;SDS011;62605;49.432;8.680;2023-01-10T02:38:08;0.37;;;0.37;;
10416;SDS011;62605;49.432;8.680;2023-01-10T02:40:46;1.00;;;0.60;;
10416;SDS011;62605;49.432;8.680;2023-01-10T02:43:18;0.50;;;0.40;;
10416;SDS011;62605;49.432;8.680;2023-01-10T02:45:51;0.50;;;0.50;;
10416;SDS011;62605;49.432;8.680;2023-01-10T02:48:26;0.50;;;0.50;;
10416;SDS011;62605;49.432;8.680;2023-01-10T02:50:55;0.70;;;0.27;;
10416;SDS011;62605;49.432;8.680;2023-01-10T02:53:26;0.97;;;0.73;;
10416;SDS011;62605;49.432;8.680;2023-01-10T02:56:07;0.50;;;0.50;;
10416;SDS011;62605;49.432;8.680;2023-01-10T02:58:59;0.77;;;0.50;;
10416;SDS011;62605;49.432;8.680;2023-01-10T03:01:41;0.40;;;0.40;;
10416;SDS011;62605;49.432;8.680;2023-01-10T03:04:22;0.57;;;0.33;;
10416;SDS011;62605;49.432;8.680;2023-01-10T03:07:02;0.70;;;0.70;;
10416;SDS011;62605;49.432;8.680;2023-01-10T03:09:39;2.77;;;0.50;;
10416;SDS011;62605;49.432;8.680;2023-01-10T03:12:18;1.77;;;0.73;;
10416;SDS011;62605;49.432;8.680;2023-01-10T03:14:50;0.50;;;0.50;;
10416;SDS011;62605;49.432;8.680;2023-01-10T03:17:19;0.70;;;0.70;;
10416;SDS011;62605;49.432;8.680;2023-01-10T03:19:49;0.60;;;0.60;;
10416;SDS011;62605;49.432;8.680;2023-01-10T03:22:19;2.10;;;0.50;;
10416;SDS011;62605;49.432;8.680;2023-01-10T03:24:47;0.40;;;0.40;;
10416;SDS011;62605;49.432;8.680;2023-01-10T03:27:18;0.60;;;0.60;;
10416;SDS011;62605;49.432;8.680;2023-01-10T03:29:49;2.53;;;0.50;;
10416;SDS011;62605;49.432;8.680;2023-01-10T03:32:20;1.30;;;0.47;;
10416;SDS011;62605;49.432;8.680;2023-01-10T03:34:53;1.40;;;0.80;;
10416;SDS011;62605;49.432;8.680;2023-01-10T03:37:22;0.77;;;0.60;;
10416;SDS011;62605;49.432;8.680;2023-01-10T03:39:57;1.60;;;0.60;;
10416;SDS011;62605;49.432;8.680;2023-01-10T03:42:33;1.53;;;0.73;;
10416;SDS011;62605;49.432;8.680;2023-01-10T03:45:23;0.93;;;0.93;;
10416;SDS011;62605;49.432;8.680;2023-01-10T03:47:54;1.13;;;1.03;;
10416;SDS011;62605;49.432;8.680;2023-01-10T03:50:25;1.00;;;0.90;;
10416;SDS011;62605;49.432;8.680;2023-01-10T03:52:53;2.53;;;0.80;;
10416;SDS011;62605;49.432;8.680;2023-01-10T03:55:21;1.30;;;0.90;;
10416;SDS011;62605;49.432;8.680;2023-01-10T03:57:51;1.27;;;0.67;;
10416;SDS011;62605;49.432;8.680;2023-01-10T04:00:18;0.90;;;0.90;;
10416;SDS011;62605;49.432;8.680;2023-01-10T04:02:45;2.00;;;1.00;;
10416;SDS011;62605;49.432;8.680;2023-01-10T04:05:12;1.37;;;0.93;;
10416;SDS011;62605;49.432;8.680;2023-01-10T04:07:41;0.70;;;0.70;;
10416;SDS011;62605;49.432;8.680;2023-01-10T04:10:08;2.07;;;0.93;;
10416;SDS011;62605;49.432;8.680;2023-01-10T04:12:36;2.63;;;1.03;;
10416;SDS011;62605;49.432;8.680;2023-01-10T04:15:03;3.30;;;0.63;;
10416;SDS011;62605;49.432;8.680;2023-01-10T04:17:31;2.00;;;0.70;;
10416;SDS011;62605;49.432;8.680;2023-01-10T04:19:58;4.37;;;0.90;;
10416;SDS011;62605;49.432;8.680;2023-01-10T04:22:25;1.50;;;0.63;;
10416;SDS011;62605;49.432;8.680;2023-01-10T04:24:54;1.90;;;0.90;;
10416;SDS011;62605;49.432;8.680;2023-01-10T04:27:21;1.50;;;0.90;;
10416;SDS011;62605;49.432;8.680;2023-01-10T04:29:48;1.47;;;0.80;;
10416;SDS011;62605;49.432;8.680;2023-01-10T04:32:15;0.77;;;0.57;;
10416;SDS011;62605;49.432;8.680;2023-01-10T04:34:42;0.97;;;0.70;;
10416;SDS011;62605;49.432;8.680;2023-01-10T04:37:09;0.80;;;0.80;;
10416;SDS011;62605;49.432;8.680;2023-01-10T04:39:36;1.60;;;0.90;;
10416;SDS011;62605;49.432;8.680;2023-01-10T04:42:05;0.60;;;0.60;;
10416;SDS011;62605;49.432;8.680;2023-01-10T04:44:31;2.80;;;1.03;;
10416;SDS011;62605;49.432;8.680;2023-01-10T04:46:58;1.40;;;0.70;;
10416;SDS011;62605;49.432;8.680;2023-01-10T04:49:25;0.70;;;0.70;;
10416;SDS011;62605;49.432;8.680;2023-01-10T04:51:52;1.97;;;0.93;;
10416;SDS011;62605;49.432;8.680;2023-01-10T04:54:20;2.33;;;0.80;;
10416;SDS011;62605;49.432;8.680;2023-01-10T04:56:47;1.83;;;0.90;;
10416;SDS011;62605;49.432;8.680;2023-01-10T04:59:18;0.63;;;0.63;;
10416;SDS011;62605;49.432;8.680;2023-01-10T05:01:45;0.57;;;0.57;;
10416;SDS011;62605;49.432;8.680;2023-01-10T05:04:12;1.23;;;0.73;;
10416;SDS011;62605;49.432;8.680;2023-01-10T05:06:39;5.60;;;1.40;;
10416;SDS011;62605;49.432;8.680;2023-01-10T05:09:06;1.53;;;0.90;;
10416;SDS011;62605;49.432;8.680;2023-01-10T05:11:34;1.23;;;0.63;;
10416;SDS011;62605;49.432;8.680;2023-01-10T05:14:01;0.93;;;0.93;;
10416;SDS011;62605;49.432;8.680;2023-01-10T05:16:29;2.77;;;0.70;;
10416;SDS011;62605;49.432;8.680;2023-01-10T05:18:56;1.90;;;1.03;;
10416;SDS011;62605;49.432;8.680;2023-01-10T05:21:23;0.97;;;0.80;;
10416;SDS011;62605;49.432;8.680;2023-01-10T05:23:54;1.67;;;0.80;;
10416;SDS011;62605;49.432;8.680;2023-01-10T05:26:22;4.63;;;1.07;;
10416;SDS011;62605;49.432;8.680;2023-01-10T05:28:49;2.40;;;1.30;;
10416;SDS011;62605;49.432;8.680;2023-01-10T05:31:17;3.43;;;0.93;;
10416;SDS011;62605;49.432;8.680;2023-01-10T05:33:46;4.23;;;1.60;;
10416;SDS011;62605;49.432;8.680;2023-01-10T05:36:16;0.97;;;0.83;;
10416;SDS011;62605;49.432;8.680;2023-01-10T05:38:44;1.00;;;0.90;;
10416;SDS011;62605;49.432;8.680;2023-01-10T05:41:11;4.93;;;0.90;;
10416;SDS011;62605;49.432;8.680;2023-01-10T05:43:38;2.07;;;1.40;;
10416;SDS011;62605;49.432;8.680;2023-01-10T05:46:05;2.60;;;1.27;;
10416;SDS011;62605;49.432;8.680;2023-01-10T05:48:32;2.67;;;1.00;;
10416;SDS011;62605;49.432;8.680;2023-01-10T05:51:00;1.10;;;1.00;;
10416;SDS011;62605;49.432;8.680;2023-01-10T05:53:27;1.67;;;1.07;;
10416;SDS011;62605;49.432;8.680;2023-01-10T05:55:56;1.00;;;0.80;;
10416;SDS011;62605;49.432;8.680;2023-01-10T05:58:25;1.47;;;0.90;;
10416;SDS011;62605;49.432;8.680;2023-01-10T06:00:53;6.33;;;1.10;;
10416;SDS011;62605;49.432;8.680;2023-01-10T06:03:21;1.10;;;0.90;;
10416;SDS011;62605;49.432;8.680;2023-01-10T06:05:50;4.80;;;1.03;;
10416;SDS011;62605;49.432;8.680;2023-01-10T06:08:19;0.67;;;0.67;;
10416;SDS011;62605;49.432;8.680;2023-01-10T06:10:47;1.77;;;1.00;;
10416;SDS011;62605;49.432;8.680;2023-01-10T06:13:14;4.83;;;1.37;;
10416;SDS011;62605;49.432;8.680;2023-01-10T06:15:41;1.87;;;1.20;;
10416;SDS011;62605;49.432;8.680;2023-01-10T06:18:09;5.23;;;1.60;;
10416;SDS011;62605;49.432;8.680;2023-01-10T06:20:36;2.30;;;1.10;;
10416;SDS011;62605;49.432;8.680;2023-01-10T06:23:03;2.40;;;1.23;;
10416;SDS011;62605;49.432;8.680;2023-01-10T06:25:32;1.37;;;1.10;;
10416;SDS011;62605;49.432;8.680;2023-01-10T06:28:01;3.17;;;1.10;;
10416;SDS011;62605;49.432;8.680;2023-01-10T06:30:29;1.33;;;1.00;;
10416;SDS011;62605;49.432;8.680;2023-01-10T06:32:59;6.47;;;1.57;;
10416;SDS011;62605;49.432;8.680;2023-01-10T06:35:26;3.63;;;1.30;;
10416;SDS011;62605;49.432;8.680;2023-01-10T06:37:53;4.40;;;1.23;;
10416;SDS011;62605;49.432;8.680;2023-01-10T06:40:21;1.97;;;1.00;;
10416;SDS011;62605;49.432;8.680;2023-01-10T06:42:49;1.47;;;1.27;;
10416;SDS011;62605;49.432;8.680;2023-01-10T06:45:16;5.70;;;1.17;;
10416;SDS011;62605;49.432;8.680;2023-01-10T06:47:43;2.57;;;1.43;;
10416;SDS011;62605;49.432;8.680;2023-01-10T06:50:10;3.23;;;1.20;;
10416;SDS011;62605;49.432;8.680;2023-01-10T06:52:38;2.10;;;1.27;;
10416;SDS011;62605;49.432;8.680;2023-01-10T06:55:06;2.90;;;0.90;;
10416;SDS011;62605;49.432;8.680;2023-01-10T06:57:33;4.43;;;0.70;;
10416;SDS011;62605;49.432;8.680;2023-01-10T07:00:04;2.43;;;1.37;;
10416;SDS011;62605;49.432;8.680;2023-01-10T07:02:33;1.80;;;1.17;;
10416;SDS011;62605;49.432;8.680;2023-01-10T07:05:00;3.00;;;1.07;;
10416;SDS011;62605;49.432;8.680;2023-01-10T07:07:27;4.07;;;1.10;;
10416;SDS011;62605;49.432;8.680;2023-01-10T07:09:54;2.43;;;1.23;;
10416;SDS011;62605;49.432;8.680;2023-01-10T07:12:23;7.57;;;1.63;;
10416;SDS011;62605;49.432;8.680;2023-01-10T07:14:50;8.77;;;1.80;;
10416;SDS011;62605;49.432;8.680;2023-01-10T07:17:19;2.90;;;1.40;;
10416;SDS011;62605;49.432;8.680;2023-01-10T07:19:46;3.50;;;1.10;;
10416;SDS011;62605;49.432;8.680;2023-01-10T07:22:13;5.33;;;1.60;;
10416;SDS011;62605;49.432;8.680;2023-01-10T07:24:40;4.70;;;1.77;;
10416;SDS011;62605;49.432;8.680;2023-01-10T07:27:10;4.63;;;1.60;;
10416;SDS011;62605;49.432;8.680;2023-01-10T07:29:38;2.60;;;1.27;;
10416;SDS011;62605;49.432;8.680;2023-01-10T07:32:05;1.63;;;1.27;;
10416;SDS011;62605;49.432;8.680;2023-01-10T07:34:33;3.17;;;1.27;;
10416;SDS011;62605;49.432;8.680;2023-01-10T07:37:00;9.27;;;1.40;;
10416;SDS011;62605;49.432;8.680;2023-01-10T07:39:27;4.53;;;1.23;;
10416;SDS011;62605;49.432;8.680;2023-01-10T07:41:54;5.07;;;1.57;;
10416;SDS011;62605;49.432;8.680;2023-01-10T07:44:21;5.90;;;1.50;;
10416;SDS011;62605;49.432;8.680;2023-01-10T07:46:49;2.87;;;1.17;;
10416;SDS011;62605;49.432;8.680;2023-01-10T07:49:16;4.43;;;1.80;;
10416;SDS011;62605;49.432;8.680;2023-01-10T07:51:44;3.83;;;1.20;;
10416;SDS011;62605;49.432;8.680;2023-01-10T07:54:11;1.47;;;1.03;;
10416;SDS011;62605;49.432;8.680;2023-01-10T07:56:38;6.27;;;1.60;;
10416;SDS011;62605;49.432;8.680;2023-01-10T07:59:05;3.90;;;1.47;;
10416;SDS011;62605;49.432;8.680;2023-01-10T08:01:32;7.27;;;1.27;;
10416;SDS011;62605;49.432;8.680;2023-01-10T08:03:59;6.63;;;1.40;;
10416;SDS011;62605;49.432;8.680;2023-01-10T08:06:27;2.90;;;1.33;;
10416;SDS011;62605;49.432;8.680;2023-01-10T08:08:55;11.47;;;2.40;;
10416;SDS011;62605;49.432;8.680;2023-01-10T08:11:22;5.53;;;1.73;;
10416;SDS011;62605;49.432;8.680;2023-01-10T08:13:49;4.83;;;1.57;;
10416;SDS011;62605;49.432;8.680;2023-01-10T08:16:16;5.40;;;1.40;;
10416;SDS011;62605;49.432;8.680;2023-01-10T08:18:44;3.33;;;1.23;;
10416;SDS011;62605;49.432;8.680;2023-01-10T08:21:12;1.77;;;1.10;;
10416;SDS011;62605;49.432;8.680;2023-01-10T08:23:39;1.93;;;1.07;;
10416;SDS011;62605;49.432;8.680;2023-01-10T08:26:07;6.27;;;1.33;;
10416;SDS011;62605;49.432;8.680;2023-01-10T08:28:35;1.47;;;0.83;;
10416;SDS011;62605;49.432;8.680;2023-01-10T08:31:04;3.00;;;1.40;;
10416;SDS011;62605;49.432;8.680;2023-01-10T08:33:33;1.83;;;1.30;;
10416;SDS011;62605;49.432;8.680;2023-01-10T08:36:02;3.83;;;1.30;;
10416;SDS011;62605;49.432;8.680;2023-01-10T08:38:39;2.60;;;1.20;;
10416;SDS011;62605;49.432;8.680;2023-01-10T08:41:08;5.03;;;1.40;;
10416;SDS011;62605;49.432;8.680;2023-01-10T08:43:35;3.97;;;1.20;;
10416;SDS011;62605;49.432;8.680;2023-01-10T08:46:04;5.70;;;1.23;;
10416;SDS011;62605;49.432;8.680;2023-01-10T08:48:34;4.87;;;1.23;;
10416;SDS011;62605;49.432;8.680;2023-01-10T08:51:04;9.77;;;2.37;;
10416;SDS011;62605;49.432;8.680;2023-01-10T08:53:34;4.10;;;1.23;;
10416;SDS011;62605;49.432;8.680;2023-01-10T08:56:04;6.07;;;2.13;;
10416;SDS011;62605;49.432;8.680;2023-01-10T08:58:36;4.17;;;1.40;;
10416;SDS011;62605;49.432;8.680;2023-01-10T09:01:03;5.97;;;1.87;;
10416;SDS011;62605;49.432;8.680;2023-01-10T09:03:31;2.23;;;0.93;;
10416;SDS011;62605;49.432;8.680;2023-01-10T09:05:58;1.93;;;1.10;;
10416;SDS011;62605;49.432;8.680;2023-01-10T09:08:26;9.27;;;1.23;;
10416;SDS011;62605;49.432;8.680;2023-01-10T09:10:53;4.93;;;1.03;;
10416;SDS011;62605;49.432;8.680;2023-01-10T09:13:21;1.07;;;0.97;;
10416;SDS011;62605;49.432;8.680;2023-01-10T09:15:50;4.60;;;1.13;;
10416;SDS011;62605;49.432;8.680;2023-01-10T09:18:17;3.43;;;1.13;;
10416;SDS011;62605;49.432;8.680;2023-01-10T09:20:44;2.70;;;1.27;;
10416;SDS011;62605;49.432;8.680;2023-01-10T09:23:11;4.87;;;1.33;;
10416;SDS011;62605;49.432;8.680;2023-01-10T09:25:41;6.57;;;2.10;;
10416;SDS011;62605;49.432;8.680;2023-01-10T09:28:09;7.00;;;1.83;;
10416;SDS011;62605;49.432;8.680;2023-01-10T09:30:37;8.03;;;2.50;;
10416;SDS011;62605;49.432;8.680;2023-01-10T09:33:04;3.37;;;1.80;;
10416;SDS011;62605;49.432;8.680;2023-01-10T09:35:34;9.17;;;1.80;;
10416;SDS011;62605;49.432;8.680;2023-01-10T09:38:02;2.67;;;1.63;;
10416;SDS011;62605;49.432;8.680;2023-01-10T09:40:39;5.30;;;1.33;;
10416;SDS011;62605;49.432;8.680;2023-01-10T09:43:20;5.30;;;1.00;;
10416;SDS011;62605;49.432;8.680;2023-01-10T09:45:56;3.63;;;1.20;;
10416;SDS011;62605;49.432;8.680;2023-01-10T09:48:30;3.73;;;1.23;;
10416;SDS011;62605;49.432;8.680;2023-01-10T09:51:09;2.67;;;1.23;;
10416;SDS011;62605;49.432;8.680;2023-01-10T09:53:48;3.50;;;1.20;;
10416;SDS011;62605;49.432;8.680;2023-01-10T09:56:17;10.83;;;1.90;;
10416;SDS011;62605;49.432;8.680;2023-01-10T09:58:44;9.03;;;1.80;;
10416;SDS011;62605;49.432;8.680;2023-01-10T10:01:24;1.83;;;1.13;;
10416;SDS011;62605;49.432;8.680;2023-01-10T10:03:57;7.47;;;1.30;;
10416;SDS011;62605;49.432;8.680;2023-01-10T10:06:27;5.83;;;1.60;;
10416;SDS011;62605;49.432;8.680;2023-01-10T10:08:55;1.20;;;0.80;;
10416;SDS011;62605;49.432;8.680;2023-01-10T10:11:32;4.33;;;1.30;;
10416;SDS011;62605;49.432;8.680;2023-01-10T10:14:10;4.30;;;1.17;;
10416;SDS011;62605;49.432;8.680;2023-01-10T10:16:52;5.37;;;1.33;;
10416;SDS011;62605;49.432;8.680;2023-01-10T10:19:36;2.77;;;1.00;;
10416;SDS011;62605;49.432;8.680;2023-01-10T10:22:17;2.33;;;1.30;;
10416;SDS011;62605;49.432;8.680;2023-01-10T10:24:54;6.50;;;1.37;;
10416;SDS011;62605;49.432;8.680;2023-01-10T10:27:29;2.33;;;1.37;;
10416;SDS011;62605;49.432;8.680;2023-01-10T10:33:03;2.87;;;0.80;;
10416;SDS011;62605;49.432;8.680;2023-01-10T10:35:48;2.37;;;1.10;;
10416;SDS011;62605;49.432;8.680;2023-01-10T10:38:21;4.53;;;1.43;;
10416;SDS011;62605;49.432;8.680;2023-01-10T10:40:54;8.40;;;1.87;;
10416;SDS011;62605;49.432;8.680;2023-01-10T10:43:28;2.20;;;1.17;;
10416;SDS011;62605;49.432;8.680;2023-01-10T10:45:59;5.67;;;2.13;;
10416;SDS011;62605;49.432;8.680;2023-01-10T10:48:31;5.03;;;1.23;;
10416;SDS011;62605;49.432;8.680;2023-01-10T10:51:02;9.17;;;2.07;;
10416;SDS011;62605;49.432;8.680;2023-01-10T10:53:33;4.53;;;1.50;;
10416;SDS011;62605;49.432;8.680;2023-01-10T10:56:01;2.67;;;1.33;;
10416;SDS011;62605;49.432;8.680;2023-01-10T10:58:29;2.23;;;1.30;;
10416;SDS011;62605;49.432;8.680;2023-01-10T11:00:56;1.40;;;1.13;;
10416;SDS011;62605;49.432;8.680;2023-01-10T11:03:25;5.13;;;1.57;;
10416;SDS011;62605;49.432;8.680;2023-01-10T11:06:07;6.47;;;1.77;;
10416;SDS011;62605;49.432;8.680;2023-01-10T11:08:36;11.77;;;2.00;;
10416;SDS011;62605;49.432;8.680;2023-01-10T11:11:09;6.17;;;1.30;;
10416;SDS011;62605;49.432;8.680;2023-01-10T11:13:45;5.80;;;1.43;;
10416;SDS011;62605;49.432;8.680;2023-01-10T11:16:27;5.97;;;1.70;;
10416;SDS011;62605;49.432;8.680;2023-01-10T11:19:16;7.83;;;1.80;;
10416;SDS011;62605;49.432;8.680;2023-01-10T11:21:47;11.37;;;1.87;;
10416;SDS011;62605;49.432;8.680;2023-01-10T11:24:19;4.73;;;1.33;;
10416;SDS011;62605;49.432;8.680;2023-01-10T11:26:52;5.33;;;1.97;;
10416;SDS011;62605;49.432;8.680;2023-01-10T11:29:20;8.20;;;1.90;;
10416;SDS011;62605;49.432;8.680;2023-01-10T11:31:52;5.33;;;1.63;;
10416;SDS011;62605;49.432;8.680;2023-01-10T11:34:22;7.30;;;1.90;;
10416;SDS011;62605;49.432;8.680;2023-01-10T11:36:51;7.23;;;1.87;;
10416;SDS011;62605;49.432;8.680;2023-01-10T11:39:20;9.53;;;1.63;;
10416;SDS011;62605;49.432;8.680;2023-01-10T11:41:47;6.00;;;1.67;;
10416;SDS011;62605;49.432;8.680;2023-01-10T11:44:20;3.20;;;1.60;;
10416;SDS011;62605;49.432;8.680;2023-01-10T11:46:49;7.10;;;1.60;;
10416;SDS011;62605;49.432;8.680;2023-01-10T11:49:24;7.40;;;2.03;;
10416;SDS011;62605;49.432;8.680;2023-01-10T11:51:57;5.40;;;1.57;;
10416;SDS011;62605;49.432;8.680;2023-01-10T11:54:29;10.43;;;2.00;;
10416;SDS011;62605;49.432;8.680;2023-01-10T11:56:59;5.00;;;2.23;;
10416;SDS011;62605;49.432;8.680;2023-01-10T11:59:29;7.37;;;2.17;;
10416;SDS011;62605;49.432;8.680;2023-01-10T12:01:59;9.67;;;1.60;;
10416;SDS011;62605;49.432;8.680;2023-01-10T12:04:31;4.30;;;1.67;;
10416;SDS011;62605;49.432;8.680;2023-01-10T12:07:06;7.37;;;1.40;;
10416;SDS011;62605;49.432;8.680;2023-01-10T12:09:37;1.80;;;1.17;;
10416;SDS011;62605;49.432;8.680;2023-01-10T12:12:13;7.40;;;1.87;;
10416;SDS011;62605;49.432;8.680;2023-01-10T12:14:43;2.83;;;1.67;;
10416;SDS011;62605;49.432;8.680;2023-01-10T12:17:10;5.13;;;1.67;;
10416;SDS011;62605;49.432;8.680;2023-01-10T12:19:46;3.03;;;1.40;;
10416;SDS011;62605;49.432;8.680;2023-01-10T12:22:14;5.20;;;2.17;;
10416;SDS011;62605;49.432;8.680;2023-01-10T12:24:42;3.07;;;1.70;;
10416;SDS011;62605;49.432;8.680;2023-01-10T12:27:13;7.77;;;1.63;;
10416;SDS011;62605;49.432;8.680;2023-01-10T12:29:44;9.13;;;1.43;;
10416;SDS011;62605;49.432;8.680;2023-01-10T12:32:18;6.90;;;1.77;;
10416;SDS011;62605;49.432;8.680;2023-01-10T12:34:53;8.23;;;1.60;;
10416;SDS011;62605;49.432;8.680;2023-01-10T12:37:26;5.17;;;1.80;;
10416;SDS011;62605;49.432;8.680;2023-01-10T12:40:01;2.23;;;1.40;;
10416;SDS011;62605;49.432;8.680;2023-01-10T12:42:38;9.20;;;2.60;;
10416;SDS011;62605;49.432;8.680;2023-01-10T12:45:33;3.73;;;1.17;;
10416;SDS011;62605;49.432;8.680;2023-01-10T12:48:08;4.00;;;1.33;;
10416;SDS011;62605;49.432;8.680;2023-01-10T12:50:42;3.50;;;1.10;;
10416;SDS011;62605;49.432;8.680;2023-01-10T12:53:18;5.67;;;1.67;;
10416;SDS011;62605;49.432;8.680;2023-01-10T12:55:56;5.47;;;1.77;;
10416;SDS011;62605;49.432;8.680;2023-01-10T12:58:37;4.27;;;1.60;;
10416;SDS011;62605;49.432;8.680;2023-01-10T13:01:08;6.27;;;1.43;;
10416;SDS011;62605;49.432;8.680;2023-01-10T13:03:37;8.27;;;1.70;;
10416;SDS011;62605;49.432;8.680;2023-01-10T13:06:06;4.17;;;1.83;;
10416;SDS011;62605;49.432;8.680;2023-01-10T13:08:41;5.43;;;1.13;;
10416;SDS011;62605;49.432;8.680;2023-01-10T13:11:09;6.67;;;1.97;;
10416;SDS011;62605;49.432;8.680;2023-01-10T13:13:41;9.80;;;1.53;;
10416;SDS011;62605;49.432;8.680;2023-01-10T13:16:18;4.23;;;1.43;;
10416;SDS011;62605;49.432;8.680;2023-01-10T13:19:02;4.33;;;1.27;;
10416;SDS011;62605;49.432;8.680;2023-01-10T13:21:35;8.00;;;1.40;;
10416;SDS011;62605;49.432;8.680;2023-01-10T13:24:04;7.60;;;1.43;;
10416;SDS011;62605;49.432;8.680;2023-01-10T13:26:47;4.43;;;0.87;;
10416;SDS011;62605;49.432;8.680;2023-01-10T13:29:17;4.27;;;1.30;;
10416;SDS011;62605;49.432;8.680;2023-01-10T13:31:46;3.60;;;1.10;;
10416;SDS011;62605;49.432;8.680;2023-01-10T13:34:21;5.87;;;1.50;;
10416;SDS011;62605;49.432;8.680;2023-01-10T13:36:52;4.80;;;1.47;;
10416;SDS011;62605;49.432;8.680;2023-01-10T13:39:22;4.20;;;1.43;;
10416;SDS011;62605;49.432;8.680;2023-01-10T13:42:11;4.23;;;1.13;;
10416;SDS011;62605;49.432;8.680;2023-01-10T13:45:17;2.17;;;1.10;;
10416;SDS011;62605;49.432;8.680;2023-01-10T13:48:03;4.73;;;1.30;;
10416;SDS011;62605;49.432;8.680;2023-01-10T13:50:49;1.60;;;0.93;;
10416;SDS011;62605;49.432;8.680;2023-01-10T13:59:10;2.43;;;0.90;;
10416;SDS011;62605;49.432;8.680;2023-01-10T14:01:57;4.70;;;1.47;;
10416;SDS011;62605;49.432;8.680;2023-01-10T14:04:59;10.00;;;1.80;;
10416;SDS011;62605;49.432;8.680;2023-01-10T14:07:32;6.67;;;1.30;;
10416;SDS011;62605;49.432;8.680;2023-01-10T14:10:10;5.50;;;1.33;;
10416;SDS011;62605;49.432;8.680;2023-01-10T14:12:47;9.27;;;1.60;;
10416;SDS011;62605;49.432;8.680;2023-01-10T14:15:20;1.97;;;1.03;;
10416;SDS011;62605;49.432;8.680;2023-01-10T14:17:54;5.20;;;1.63;;
10416;SDS011;62605;49.432;8.680;2023-01-10T14:20:24;4.00;;;1.40;;
10416;SDS011;62605;49.432;8.680;2023-01-10T14:22:59;4.77;;;1.10;;
10416;SDS011;62605;49.432;8.680;2023-01-10T14:25:31;3.77;;;1.03;;
10416;SDS011;62605;49.432;8.680;2023-01-10T14:28:00;4.73;;;1.37;;
10416;SDS011;62605;49.432;8.680;2023-01-10T14:30:28;4.33;;;1.40;;
10416;SDS011;62605;49.432;8.680;2023-01-10T14:32:59;3.63;;;1.70;;
10416;SDS011;62605;49.432;8.680;2023-01-10T14:35:33;6.80;;;1.87;;
10416;SDS011;62605;49.432;8.680;2023-01-10T14:38:03;8.80;;;1.57;;
10416;SDS011;62605;49.432;8.680;2023-01-10T14:40:35;4.07;;;1.87;;
10416;SDS011;62605;49.432;8.680;2023-01-10T14:43:08;5.00;;;1.63;;
10416;SDS011;62605;49.432;8.680;2023-01-10T14:45:39;2.00;;;1.10;;
10416;SDS011;62605;49.432;8.680;2023-01-10T14:48:16;7.17;;;1.67;;
10416;SDS011;62605;49.432;8.680;2023-01-10T14:50:52;3.07;;;1.57;;
10416;SDS011;62605;49.432;8.680;2023-01-10T14:53:31;5.40;;;1.33;;
10416;SDS011;62605;49.432;8.680;2023-01-10T14:55:59;3.37;;;1.10;;
10416;SDS011;62605;49.432;8.680;2023-01-10T14:58:26;6.63;;;1.83;;
10416;SDS011;62605;49.432;8.680;2023-01-10T15:00:54;3.33;;;1.10;;
10416;SDS011;62605;49.432;8.680;2023-01-10T15:03:22;4.77;;;1.20;;
10416;SDS011;62605;49.432;8.680;2023-01-10T15:05:51;3.03;;;1.40;;
10416;SDS011;62605;49.432;8.680;2023-01-10T15:08:20;5.60;;;1.77;;
10416;SDS011;62605;49.432;8.680;2023-01-10T15:10:49;3.33;;;1.10;;
10416;SDS011;62605;49.432;8.680;2023-01-10T15:13:22;6.20;;;1.47;;
10416;SDS011;62605;49.432;8.680;2023-01-10T15:15:52;4.43;;;1.40;;
10416;SDS011;62605;49.432;8.680;2023-01-10T15:18:26;10.37;;;1.70;;
10416;SDS011;62605;49.432;8.680;2023-01-10T15:20:57;2.73;;;1.43;;